sensor_id;sensor_type;location;lat;lon;timestamp;P1;durP1;ratioP1;P2;durP2;ratioP2
26540;SDS011;14206;50.202;10.948;2023-02-26T00:00:08;1.60;;;0.77;;
26540;SDS011;14206;50.202;10.948;2023-02-26T00:02:40;0.87;;;0.70;;
26540;SDS011;14206;50.202;10.948;2023-02-26T00:09:31;1.15;;;0.60;;
26540;SDS011;14206;50.202;10.948;2023-02-26T00:11:58;1.10;;;0.68;;
26540;SDS011;14206;50.202;10.948;2023-02-26T00:14:26;1.02;;;0.63;;
26540;SDS011;14206;50.202;10.948;2023-02-26T00:16:56;1.73;;;0.80;;
26540;SDS011;14206;50.202;10.948;2023-02-26T00:19:39;1.38;;;0.82;;
26540;SDS011;14206;50.202;10.948;2023-02-26T00:22:06;1.75;;;0.68;;
26540;SDS011;14206;50.202;10.948;2023-02-26T00:24:33;1.65;;;1.00;;
26540;SDS011;14206;50.202;10.948;2023-02-26T00:27:00;1.35;;;0.73;;
26540;SDS011;14206;50.202;10.948;2023-02-26T00:29:27;2.22;;;0.80;;
26540;SDS011;14206;50.202;10.948;2023-02-26T00:31:54;2.35;;;0.93;;
26540;SDS011;14206;50.202;10.948;2023-02-26T00:34:21;1.20;;;0.68;;
26540;SDS011;14206;50.202;10.948;2023-02-26T00:42:20;1.92;;;0.70;;
26540;SDS011;14206;50.202;10.948;2023-02-26T00:44:47;1.73;;;0.80;;
26540;SDS011;14206;50.202;10.948;2023-02-26T00:47:24;0.70;;;0.45;;
26540;SDS011;14206;50.202;10.948;2023-02-26T00:52:59;0.80;;;0.50;;
26540;SDS011;14206;50.202;10.948;2023-02-26T00:55:44;0.77;;;0.50;;
26540;SDS011;14206;50.202;10.948;2023-02-26T00:58:11;3.50;;;0.60;;
26540;SDS011;14206;50.202;10.948;2023-02-26T01:00:38;0.95;;;0.55;;
26540;SDS011;14206;50.202;10.948;2023-02-26T01:03:04;1.02;;;0.52;;
26540;SDS011;14206;50.202;10.948;2023-02-26T01:05:32;2.58;;;0.70;;
26540;SDS011;14206;50.202;10.948;2023-02-26T01:10:39;0.82;;;0.60;;
26540;SDS011;14206;50.202;10.948;2023-02-26T01:13:07;1.00;;;0.60;;
26540;SDS011;14206;50.202;10.948;2023-02-26T01:15:34;0.85;;;0.45;;
26540;SDS011;14206;50.202;10.948;2023-02-26T01:18:11;1.23;;;0.50;;
26540;SDS011;14206;50.202;10.948;2023-02-26T01:20:56;1.00;;;0.60;;
26540;SDS011;14206;50.202;10.948;2023-02-26T01:23:30;1.13;;;0.60;;
26540;SDS011;14206;50.202;10.948;2023-02-26T01:26:03;1.13;;;0.65;;
26540;SDS011;14206;50.202;10.948;2023-02-26T01:28:36;0.63;;;0.52;;
26540;SDS011;14206;50.202;10.948;2023-02-26T01:31:04;1.15;;;0.75;;
26540;SDS011;14206;50.202;10.948;2023-02-26T01:33:43;1.20;;;0.80;;
26540;SDS011;14206;50.202;10.948;2023-02-26T01:36:19;0.85;;;0.50;;
26540;SDS011;14206;50.202;10.948;2023-02-26T01:39:07;0.73;;;0.60;;
26540;SDS011;14206;50.202;10.948;2023-02-26T01:41:53;0.60;;;0.60;;
26540;SDS011;14206;50.202;10.948;2023-02-26T01:47:19;0.52;;;0.50;;
26540;SDS011;14206;50.202;10.948;2023-02-26T01:49:53;0.90;;;0.50;;
26540;SDS011;14206;50.202;10.948;2023-02-26T01:55:19;0.80;;;0.40;;
26540;SDS011;14206;50.202;10.948;2023-02-26T01:57:48;1.17;;;0.60;;
26540;SDS011;14206;50.202;10.948;2023-02-26T02:00:19;1.88;;;0.43;;
26540;SDS011;14206;50.202;10.948;2023-02-26T02:02:46;1.40;;;0.50;;
26540;SDS011;14206;50.202;10.948;2023-02-26T02:05:49;1.35;;;0.38;;
26540;SDS011;14206;50.202;10.948;2023-02-26T02:08:09;1.27;;;0.40;;
26540;SDS011;14206;50.202;10.948;2023-02-26T02:10:39;0.70;;;0.40;;
26540;SDS011;14206;50.202;10.948;2023-02-26T02:13:30;0.50;;;0.40;;
26540;SDS011;14206;50.202;10.948;2023-02-26T02:18:48;0.30;;;0.30;;
26540;SDS011;14206;50.202;10.948;2023-02-26T02:33:51;0.70;;;0.40;;
26540;SDS011;14206;50.202;10.948;2023-02-26T02:36:46;0.45;;;0.40;;
26540;SDS011;14206;50.202;10.948;2023-02-26T02:39:39;1.60;;;0.40;;
26540;SDS011;14206;50.202;10.948;2023-02-26T02:44:40;2.10;;;0.47;;
26540;SDS011;14206;50.202;10.948;2023-02-26T02:47:11;1.67;;;0.63;;
26540;SDS011;14206;50.202;10.948;2023-02-26T02:49:44;1.38;;;0.50;;
26540;SDS011;14206;50.202;10.948;2023-02-26T02:55:33;1.10;;;0.65;;
26540;SDS011;14206;50.202;10.948;2023-02-26T02:58:05;0.90;;;0.52;;
26540;SDS011;14206;50.202;10.948;2023-02-26T03:00:37;0.95;;;0.60;;
26540;SDS011;14206;50.202;10.948;2023-02-26T03:05:38;0.50;;;0.50;;
26540;SDS011;14206;50.202;10.948;2023-02-26T03:08:07;0.50;;;0.40;;
26540;SDS011;14206;50.202;10.948;2023-02-26T03:10:38;0.77;;;0.50;;
26540;SDS011;14206;50.202;10.948;2023-02-26T03:13:05;1.83;;;0.80;;
26540;SDS011;14206;50.202;10.948;2023-02-26T03:24:03;1.07;;;0.60;;
26540;SDS011;14206;50.202;10.948;2023-02-26T03:26:42;0.77;;;0.50;;
26540;SDS011;14206;50.202;10.948;2023-02-26T03:29:26;0.68;;;0.50;;
26540;SDS011;14206;50.202;10.948;2023-02-26T03:31:58;2.30;;;0.75;;
26540;SDS011;14206;50.202;10.948;2023-02-26T03:34:40;0.88;;;0.55;;
26540;SDS011;14206;50.202;10.948;2023-02-26T03:37:19;1.42;;;0.68;;
26540;SDS011;14206;50.202;10.948;2023-02-26T03:39:52;0.65;;;0.50;;
26540;SDS011;14206;50.202;10.948;2023-02-26T03:42:40;0.70;;;0.70;;
26540;SDS011;14206;50.202;10.948;2023-02-26T03:45:13;0.57;;;0.50;;
26540;SDS011;14206;50.202;10.948;2023-02-26T03:47:45;0.70;;;0.50;;
26540;SDS011;14206;50.202;10.948;2023-02-26T03:50:24;2.42;;;0.88;;
26540;SDS011;14206;50.202;10.948;2023-02-26T03:53:30;1.80;;;0.80;;
26540;SDS011;14206;50.202;10.948;2023-02-26T03:56:14;3.05;;;0.80;;
26540;SDS011;14206;50.202;10.948;2023-02-26T03:58:53;1.95;;;0.73;;
26540;SDS011;14206;50.202;10.948;2023-02-26T04:02:04;1.38;;;0.60;;
26540;SDS011;14206;50.202;10.948;2023-02-26T04:04:36;1.40;;;0.60;;
26540;SDS011;14206;50.202;10.948;2023-02-26T04:07:11;0.90;;;0.60;;
26540;SDS011;14206;50.202;10.948;2023-02-26T04:09:40;2.50;;;0.60;;
26540;SDS011;14206;50.202;10.948;2023-02-26T04:12:07;0.52;;;0.52;;
26540;SDS011;14206;50.202;10.948;2023-02-26T04:14:37;0.85;;;0.43;;
26540;SDS011;14206;50.202;10.948;2023-02-26T04:17:04;1.00;;;0.50;;
26540;SDS011;14206;50.202;10.948;2023-02-26T04:19:31;0.88;;;0.50;;
26540;SDS011;14206;50.202;10.948;2023-02-26T04:21:59;2.30;;;0.73;;
26540;SDS011;14206;50.202;10.948;2023-02-26T04:24:25;1.20;;;0.75;;
26540;SDS011;14206;50.202;10.948;2023-02-26T04:26:56;1.73;;;0.60;;
26540;SDS011;14206;50.202;10.948;2023-02-26T04:29:26;0.55;;;0.52;;
26540;SDS011;14206;50.202;10.948;2023-02-26T04:31:53;1.52;;;0.60;;
26540;SDS011;14206;50.202;10.948;2023-02-26T04:34:21;0.52;;;0.52;;
26540;SDS011;14206;50.202;10.948;2023-02-26T04:36:48;1.48;;;0.68;;
26540;SDS011;14206;50.202;10.948;2023-02-26T04:39:15;0.70;;;0.70;;
26540;SDS011;14206;50.202;10.948;2023-02-26T04:41:42;0.90;;;0.60;;
26540;SDS011;14206;50.202;10.948;2023-02-26T04:44:09;0.75;;;0.55;;
26540;SDS011;14206;50.202;10.948;2023-02-26T04:46:39;0.50;;;0.50;;
26540;SDS011;14206;50.202;10.948;2023-02-26T04:49:06;0.68;;;0.50;;
26540;SDS011;14206;50.202;10.948;2023-02-26T04:51:34;1.13;;;0.60;;
26540;SDS011;14206;50.202;10.948;2023-02-26T04:54:01;0.77;;;0.57;;
26540;SDS011;14206;50.202;10.948;2023-02-26T04:56:30;1.60;;;0.60;;
26540;SDS011;14206;50.202;10.948;2023-02-26T04:58:58;1.27;;;0.60;;
26540;SDS011;14206;50.202;10.948;2023-02-26T05:01:28;0.60;;;0.50;;
26540;SDS011;14206;50.202;10.948;2023-02-26T05:03:56;0.70;;;0.60;;
26540;SDS011;14206;50.202;10.948;2023-02-26T05:06:23;0.50;;;0.50;;
26540;SDS011;14206;50.202;10.948;2023-02-26T05:08:51;0.95;;;0.57;;
26540;SDS011;14206;50.202;10.948;2023-02-26T05:11:18;0.90;;;0.50;;
26540;SDS011;14206;50.202;10.948;2023-02-26T05:13:45;0.95;;;0.60;;
26540;SDS011;14206;50.202;10.948;2023-02-26T05:16:13;0.50;;;0.50;;
26540;SDS011;14206;50.202;10.948;2023-02-26T05:18:40;1.02;;;0.60;;
26540;SDS011;14206;50.202;10.948;2023-02-26T05:21:07;1.63;;;0.60;;
26540;SDS011;14206;50.202;10.948;2023-02-26T05:23:33;0.95;;;0.40;;
26540;SDS011;14206;50.202;10.948;2023-02-26T05:26:00;2.15;;;0.60;;
26540;SDS011;14206;50.202;10.948;2023-02-26T05:28:28;0.32;;;0.32;;
26540;SDS011;14206;50.202;10.948;2023-02-26T05:30:56;0.73;;;0.47;;
26540;SDS011;14206;50.202;10.948;2023-02-26T05:33:23;0.40;;;0.35;;
26540;SDS011;14206;50.202;10.948;2023-02-26T05:35:51;1.05;;;0.40;;
26540;SDS011;14206;50.202;10.948;2023-02-26T05:38:18;0.65;;;0.40;;
26540;SDS011;14206;50.202;10.948;2023-02-26T05:40:45;0.63;;;0.50;;
26540;SDS011;14206;50.202;10.948;2023-02-26T05:43:12;0.52;;;0.52;;
26540;SDS011;14206;50.202;10.948;2023-02-26T05:45:39;1.25;;;0.60;;
26540;SDS011;14206;50.202;10.948;2023-02-26T05:48:05;1.10;;;0.60;;
26540;SDS011;14206;50.202;10.948;2023-02-26T05:50:32;0.50;;;0.50;;
26540;SDS011;14206;50.202;10.948;2023-02-26T05:52:59;0.65;;;0.50;;
26540;SDS011;14206;50.202;10.948;2023-02-26T05:55:26;1.25;;;0.70;;
26540;SDS011;14206;50.202;10.948;2023-02-26T05:57:53;1.33;;;0.60;;
26540;SDS011;14206;50.202;10.948;2023-02-26T06:00:20;1.60;;;1.00;;
26540;SDS011;14206;50.202;10.948;2023-02-26T06:02:46;1.20;;;0.60;;
26540;SDS011;14206;50.202;10.948;2023-02-26T06:05:13;0.40;;;0.40;;
26540;SDS011;14206;50.202;10.948;2023-02-26T06:07:40;0.77;;;0.57;;
26540;SDS011;14206;50.202;10.948;2023-02-26T06:10:07;0.50;;;0.50;;
26540;SDS011;14206;50.202;10.948;2023-02-26T06:12:35;1.40;;;0.70;;
26540;SDS011;14206;50.202;10.948;2023-02-26T06:15:03;0.60;;;0.60;;
26540;SDS011;14206;50.202;10.948;2023-02-26T06:17:31;0.57;;;0.50;;
26540;SDS011;14206;50.202;10.948;2023-02-26T06:19:58;1.05;;;0.60;;
26540;SDS011;14206;50.202;10.948;2023-02-26T06:22:25;1.23;;;0.60;;
26540;SDS011;14206;50.202;10.948;2023-02-26T06:24:52;1.23;;;0.70;;
26540;SDS011;14206;50.202;10.948;2023-02-26T06:27:20;0.63;;;0.50;;
26540;SDS011;14206;50.202;10.948;2023-02-26T06:29:48;0.75;;;0.70;;
26540;SDS011;14206;50.202;10.948;2023-02-26T06:32:14;0.80;;;0.80;;
26540;SDS011;14206;50.202;10.948;2023-02-26T06:34:41;1.63;;;0.80;;
26540;SDS011;14206;50.202;10.948;2023-02-26T06:37:08;1.60;;;0.80;;
26540;SDS011;14206;50.202;10.948;2023-02-26T06:39:35;0.77;;;0.75;;
26540;SDS011;14206;50.202;10.948;2023-02-26T06:42:02;0.85;;;0.82;;
26540;SDS011;14206;50.202;10.948;2023-02-26T06:44:30;0.75;;;0.70;;
26540;SDS011;14206;50.202;10.948;2023-02-26T06:46:57;0.70;;;0.70;;
26540;SDS011;14206;50.202;10.948;2023-02-26T06:49:23;1.15;;;0.80;;
26540;SDS011;14206;50.202;10.948;2023-02-26T06:51:50;1.08;;;0.98;;
26540;SDS011;14206;50.202;10.948;2023-02-26T06:54:17;0.88;;;0.88;;
26540;SDS011;14206;50.202;10.948;2023-02-26T06:56:44;7.25;;;2.15;;
26540;SDS011;14206;50.202;10.948;2023-02-26T06:59:11;3.50;;;1.63;;
26540;SDS011;14206;50.202;10.948;2023-02-26T07:01:37;2.72;;;1.00;;
26540;SDS011;14206;50.202;10.948;2023-02-26T07:04:05;2.40;;;1.15;;
26540;SDS011;14206;50.202;10.948;2023-02-26T07:06:34;1.60;;;1.15;;
26540;SDS011;14206;50.202;10.948;2023-02-26T07:09:01;1.30;;;1.20;;
26540;SDS011;14206;50.202;10.948;2023-02-26T07:11:28;1.50;;;1.30;;
26540;SDS011;14206;50.202;10.948;2023-02-26T07:13:54;1.38;;;1.23;;
26540;SDS011;14206;50.202;10.948;2023-02-26T07:16:22;1.30;;;1.20;;
26540;SDS011;14206;50.202;10.948;2023-02-26T07:18:49;1.38;;;1.25;;
26540;SDS011;14206;50.202;10.948;2023-02-26T07:21:16;1.35;;;1.20;;
26540;SDS011;14206;50.202;10.948;2023-02-26T07:23:43;1.63;;;1.50;;
26540;SDS011;14206;50.202;10.948;2023-02-26T07:26:10;1.98;;;1.30;;
26540;SDS011;14206;50.202;10.948;2023-02-26T07:28:37;1.20;;;1.10;;
26540;SDS011;14206;50.202;10.948;2023-02-26T07:31:04;1.40;;;1.30;;
26540;SDS011;14206;50.202;10.948;2023-02-26T07:33:31;1.35;;;1.25;;
26540;SDS011;14206;50.202;10.948;2023-02-26T07:36:00;1.67;;;1.10;;
26540;SDS011;14206;50.202;10.948;2023-02-26T07:38:27;1.35;;;1.20;;
26540;SDS011;14206;50.202;10.948;2023-02-26T07:40:54;1.10;;;1.00;;
26540;SDS011;14206;50.202;10.948;2023-02-26T07:43:22;1.40;;;1.30;;
26540;SDS011;14206;50.202;10.948;2023-02-26T07:45:50;2.35;;;1.30;;
26540;SDS011;14206;50.202;10.948;2023-02-26T07:48:17;1.65;;;1.30;;
26540;SDS011;14206;50.202;10.948;2023-02-26T07:50:44;1.20;;;1.10;;
26540;SDS011;14206;50.202;10.948;2023-02-26T07:53:12;1.52;;;1.30;;
26540;SDS011;14206;50.202;10.948;2023-02-26T07:55:39;1.40;;;1.30;;
26540;SDS011;14206;50.202;10.948;2023-02-26T07:58:05;1.48;;;1.35;;
26540;SDS011;14206;50.202;10.948;2023-02-26T08:00:40;1.30;;;1.20;;
26540;SDS011;14206;50.202;10.948;2023-02-26T08:03:22;1.30;;;1.13;;
26540;SDS011;14206;50.202;10.948;2023-02-26T08:06:11;1.50;;;1.40;;
26540;SDS011;14206;50.202;10.948;2023-02-26T08:08:51;1.95;;;1.30;;
26540;SDS011;14206;50.202;10.948;2023-02-26T08:11:38;1.95;;;1.45;;
26540;SDS011;14206;50.202;10.948;2023-02-26T08:14:20;1.58;;;1.38;;
26540;SDS011;14206;50.202;10.948;2023-02-26T08:17:07;1.52;;;1.15;;
26540;SDS011;14206;50.202;10.948;2023-02-26T08:19:48;1.58;;;1.13;;
26540;SDS011;14206;50.202;10.948;2023-02-26T08:22:35;1.20;;;1.10;;
26540;SDS011;14206;50.202;10.948;2023-02-26T08:25:15;1.27;;;1.10;;
26540;SDS011;14206;50.202;10.948;2023-02-26T08:28:02;1.55;;;1.25;;
26540;SDS011;14206;50.202;10.948;2023-02-26T08:30:42;1.35;;;1.10;;
26540;SDS011;14206;50.202;10.948;2023-02-26T08:33:36;1.08;;;0.98;;
26540;SDS011;14206;50.202;10.948;2023-02-26T08:36:16;1.08;;;0.90;;
26540;SDS011;14206;50.202;10.948;2023-02-26T08:39:03;1.30;;;1.10;;
26540;SDS011;14206;50.202;10.948;2023-02-26T08:41:43;1.00;;;0.90;;
26540;SDS011;14206;50.202;10.948;2023-02-26T08:44:30;1.50;;;1.05;;
26540;SDS011;14206;50.202;10.948;2023-02-26T08:47:10;1.10;;;1.00;;
26540;SDS011;14206;50.202;10.948;2023-02-26T08:50:08;1.08;;;1.00;;
26540;SDS011;14206;50.202;10.948;2023-02-26T08:52:49;0.82;;;0.80;;
26540;SDS011;14206;50.202;10.948;2023-02-26T08:55:36;0.90;;;0.80;;
26540;SDS011;14206;50.202;10.948;2023-02-26T08:58:09;0.82;;;0.80;;
26540;SDS011;14206;50.202;10.948;2023-02-26T09:01:03;0.90;;;0.90;;
26540;SDS011;14206;50.202;10.948;2023-02-26T09:03:43;0.93;;;0.90;;
26540;SDS011;14206;50.202;10.948;2023-02-26T09:06:10;0.90;;;0.90;;
26540;SDS011;14206;50.202;10.948;2023-02-26T09:08:37;0.73;;;0.73;;
26540;SDS011;14206;50.202;10.948;2023-02-26T09:11:04;0.80;;;0.80;;
26540;SDS011;14206;50.202;10.948;2023-02-26T09:13:31;0.80;;;0.80;;
26540;SDS011;14206;50.202;10.948;2023-02-26T09:15:57;0.80;;;0.80;;
26540;SDS011;14206;50.202;10.948;2023-02-26T09:18:24;1.20;;;0.90;;
26540;SDS011;14206;50.202;10.948;2023-02-26T09:20:51;1.27;;;1.00;;
26540;SDS011;14206;50.202;10.948;2023-02-26T09:23:18;1.20;;;1.00;;
26540;SDS011;14206;50.202;10.948;2023-02-26T09:25:45;1.10;;;0.80;;
26540;SDS011;14206;50.202;10.948;2023-02-26T09:28:12;1.25;;;0.90;;
26540;SDS011;14206;50.202;10.948;2023-02-26T09:30:39;1.02;;;0.93;;
26540;SDS011;14206;50.202;10.948;2023-02-26T09:33:05;0.75;;;0.75;;
26540;SDS011;14206;50.202;10.948;2023-02-26T09:35:32;1.17;;;0.85;;
26540;SDS011;14206;50.202;10.948;2023-02-26T09:37:59;0.98;;;0.90;;
26540;SDS011;14206;50.202;10.948;2023-02-26T09:41:01;1.15;;;0.90;;
26540;SDS011;14206;50.202;10.948;2023-02-26T09:46:20;0.80;;;0.80;;
26540;SDS011;14206;50.202;10.948;2023-02-26T09:48:50;0.73;;;0.60;;
26540;SDS011;14206;50.202;10.948;2023-02-26T09:51:24;1.55;;;1.00;;
26540;SDS011;14206;50.202;10.948;2023-02-26T09:53:52;0.98;;;0.98;;
26540;SDS011;14206;50.202;10.948;2023-02-26T09:56:20;0.80;;;0.80;;
26540;SDS011;14206;50.202;10.948;2023-02-26T09:58:50;3.72;;;2.20;;
26540;SDS011;14206;50.202;10.948;2023-02-26T10:07:32;1.50;;;1.13;;
26540;SDS011;14206;50.202;10.948;2023-02-26T10:12:58;1.10;;;1.00;;
26540;SDS011;14206;50.202;10.948;2023-02-26T10:15:27;1.20;;;1.10;;
26540;SDS011;14206;50.202;10.948;2023-02-26T10:18:24;1.75;;;1.13;;
26540;SDS011;14206;50.202;10.948;2023-02-26T10:21:15;1.63;;;1.10;;
26540;SDS011;14206;50.202;10.948;2023-02-26T10:23:49;1.65;;;1.10;;
26540;SDS011;14206;50.202;10.948;2023-02-26T10:26:22;1.10;;;1.00;;
26540;SDS011;14206;50.202;10.948;2023-02-26T10:29:27;1.40;;;1.20;;
26540;SDS011;14206;50.202;10.948;2023-02-26T10:32:32;1.60;;;1.30;;
26540;SDS011;14206;50.202;10.948;2023-02-26T10:35:16;1.50;;;1.20;;
26540;SDS011;14206;50.202;10.948;2023-02-26T10:40:27;0.95;;;0.85;;
26540;SDS011;14206;50.202;10.948;2023-02-26T10:52:18;2.20;;;0.93;;
26540;SDS011;14206;50.202;10.948;2023-02-26T10:55:12;1.15;;;1.02;;
26540;SDS011;14206;50.202;10.948;2023-02-26T11:03:00;1.10;;;1.00;;
26540;SDS011;14206;50.202;10.948;2023-02-26T11:05:31;0.85;;;0.70;;
26540;SDS011;14206;50.202;10.948;2023-02-26T11:08:01;1.30;;;0.77;;
26540;SDS011;14206;50.202;10.948;2023-02-26T11:13:21;0.90;;;0.80;;
26540;SDS011;14206;50.202;10.948;2023-02-26T11:15:52;0.75;;;0.60;;
26540;SDS011;14206;50.202;10.948;2023-02-26T11:18:47;2.58;;;1.98;;
26540;SDS011;14206;50.202;10.948;2023-02-26T11:21:17;2.15;;;1.30;;
26540;SDS011;14206;50.202;10.948;2023-02-26T11:23:49;3.67;;;1.73;;
26540;SDS011;14206;50.202;10.948;2023-02-26T11:26:30;4.45;;;2.70;;
26540;SDS011;14206;50.202;10.948;2023-02-26T11:28:59;1.58;;;1.33;;
26540;SDS011;14206;50.202;10.948;2023-02-26T11:31:26;1.13;;;0.80;;
26540;SDS011;14206;50.202;10.948;2023-02-26T11:34:00;1.42;;;0.68;;
26540;SDS011;14206;50.202;10.948;2023-02-26T11:36:31;1.23;;;0.75;;
26540;SDS011;14206;50.202;10.948;2023-02-26T11:39:01;0.70;;;0.60;;
26540;SDS011;14206;50.202;10.948;2023-02-26T11:41:30;1.15;;;0.70;;
26540;SDS011;14206;50.202;10.948;2023-02-26T11:46:38;0.70;;;0.70;;
26540;SDS011;14206;50.202;10.948;2023-02-26T11:49:13;0.77;;;0.70;;
26540;SDS011;14206;50.202;10.948;2023-02-26T11:51:44;0.90;;;0.60;;
26540;SDS011;14206;50.202;10.948;2023-02-26T11:54:20;1.40;;;0.80;;
26540;SDS011;14206;50.202;10.948;2023-02-26T11:56:49;0.55;;;0.55;;
26540;SDS011;14206;50.202;10.948;2023-02-26T11:59:17;2.22;;;1.00;;
26540;SDS011;14206;50.202;10.948;2023-02-26T12:01:47;0.88;;;0.88;;
26540;SDS011;14206;50.202;10.948;2023-02-26T12:04:19;0.90;;;0.90;;
26540;SDS011;14206;50.202;10.948;2023-02-26T12:06:49;2.42;;;1.52;;
26540;SDS011;14206;50.202;10.948;2023-02-26T12:09:18;1.60;;;1.10;;
26540;SDS011;14206;50.202;10.948;2023-02-26T12:20:14;1.65;;;0.85;;
26540;SDS011;14206;50.202;10.948;2023-02-26T12:28:28;1.08;;;0.82;;
26540;SDS011;14206;50.202;10.948;2023-02-26T12:34:16;1.05;;;0.63;;
26540;SDS011;14206;50.202;10.948;2023-02-26T12:37:15;0.82;;;0.57;;
26540;SDS011;14206;50.202;10.948;2023-02-26T12:46:01;2.47;;;0.68;;
26540;SDS011;14206;50.202;10.948;2023-02-26T13:01:43;2.40;;;0.63;;
26540;SDS011;14206;50.202;10.948;2023-02-26T13:04:41;1.08;;;0.50;;
26540;SDS011;14206;50.202;10.948;2023-02-26T13:09:52;1.73;;;0.80;;
26540;SDS011;14206;50.202;10.948;2023-02-26T13:15:19;1.30;;;0.70;;
26540;SDS011;14206;50.202;10.948;2023-02-26T13:21:13;0.93;;;0.60;;
26540;SDS011;14206;50.202;10.948;2023-02-26T13:23:52;0.88;;;0.63;;
26540;SDS011;14206;50.202;10.948;2023-02-26T13:26:22;1.10;;;0.70;;
26540;SDS011;14206;50.202;10.948;2023-02-26T13:29:04;1.02;;;0.73;;
26540;SDS011;14206;50.202;10.948;2023-02-26T13:32:15;1.10;;;0.70;;
26540;SDS011;14206;50.202;10.948;2023-02-26T13:34:41;1.95;;;0.95;;
26540;SDS011;14206;50.202;10.948;2023-02-26T13:43:08;1.90;;;0.90;;
26540;SDS011;14206;50.202;10.948;2023-02-26T13:48:29;0.88;;;0.70;;
26540;SDS011;14206;50.202;10.948;2023-02-26T13:53:51;1.20;;;0.73;;
26540;SDS011;14206;50.202;10.948;2023-02-26T13:59:01;1.88;;;0.73;;
26540;SDS011;14206;50.202;10.948;2023-02-26T14:06:51;1.10;;;0.70;;
26540;SDS011;14206;50.202;10.948;2023-02-26T14:17:27;2.53;;;1.20;;
26540;SDS011;14206;50.202;10.948;2023-02-26T14:22:51;1.65;;;0.82;;
26540;SDS011;14206;50.202;10.948;2023-02-26T14:25:37;4.13;;;1.55;;
26540;SDS011;14206;50.202;10.948;2023-02-26T14:30:52;0.93;;;0.60;;
26540;SDS011;14206;50.202;10.948;2023-02-26T14:33:29;0.75;;;0.60;;
26540;SDS011;14206;50.202;10.948;2023-02-26T14:36:03;2.13;;;0.50;;
26540;SDS011;14206;50.202;10.948;2023-02-26T14:38:35;0.80;;;0.50;;
26540;SDS011;14206;50.202;10.948;2023-02-26T14:41:20;0.70;;;0.50;;
26540;SDS011;14206;50.202;10.948;2023-02-26T14:46:25;1.00;;;0.65;;
26540;SDS011;14206;50.202;10.948;2023-02-26T14:48:53;0.90;;;0.60;;
26540;SDS011;14206;50.202;10.948;2023-02-26T14:57:11;3.63;;;2.10;;
26540;SDS011;14206;50.202;10.948;2023-02-26T15:08:47;1.00;;;0.60;;
26540;SDS011;14206;50.202;10.948;2023-02-26T15:14:16;1.13;;;0.50;;
26540;SDS011;14206;50.202;10.948;2023-02-26T15:25:47;0.57;;;0.50;;
26540;SDS011;14206;50.202;10.948;2023-02-26T15:28:18;0.80;;;0.50;;
26540;SDS011;14206;50.202;10.948;2023-02-26T15:31:02;1.73;;;0.70;;
26540;SDS011;14206;50.202;10.948;2023-02-26T15:33:31;1.13;;;0.50;;
26540;SDS011;14206;50.202;10.948;2023-02-26T15:36:00;0.55;;;0.50;;
26540;SDS011;14206;50.202;10.948;2023-02-26T15:38:38;1.23;;;0.60;;
26540;SDS011;14206;50.202;10.948;2023-02-26T15:41:11;2.10;;;0.82;;
26540;SDS011;14206;50.202;10.948;2023-02-26T15:43:40;1.25;;;0.77;;
26540;SDS011;14206;50.202;10.948;2023-02-26T15:46:14;1.75;;;0.88;;
26540;SDS011;14206;50.202;10.948;2023-02-26T15:48:42;1.75;;;0.85;;
26540;SDS011;14206;50.202;10.948;2023-02-26T15:51:11;1.15;;;0.80;;
26540;SDS011;14206;50.202;10.948;2023-02-26T15:53:43;0.60;;;0.60;;
26540;SDS011;14206;50.202;10.948;2023-02-26T15:56:20;0.77;;;0.60;;
26540;SDS011;14206;50.202;10.948;2023-02-26T15:59:00;1.95;;;0.80;;
26540;SDS011;14206;50.202;10.948;2023-02-26T16:01:39;1.48;;;0.88;;
26540;SDS011;14206;50.202;10.948;2023-02-26T16:04:09;1.25;;;0.70;;
26540;SDS011;14206;50.202;10.948;2023-02-26T16:06:41;1.05;;;0.80;;
26540;SDS011;14206;50.202;10.948;2023-02-26T16:09:34;0.63;;;0.63;;
26540;SDS011;14206;50.202;10.948;2023-02-26T16:12:06;0.50;;;0.50;;
26540;SDS011;14206;50.202;10.948;2023-02-26T16:14:47;3.45;;;2.17;;
26540;SDS011;14206;50.202;10.948;2023-02-26T16:17:27;5.43;;;3.10;;
26540;SDS011;14206;50.202;10.948;2023-02-26T16:19:57;1.60;;;1.40;;
26540;SDS011;14206;50.202;10.948;2023-02-26T16:25:05;1.00;;;0.90;;
26540;SDS011;14206;50.202;10.948;2023-02-26T16:27:38;1.38;;;0.80;;
26540;SDS011;14206;50.202;10.948;2023-02-26T16:30:07;5.10;;;3.40;;
26540;SDS011;14206;50.202;10.948;2023-02-26T16:32:42;2.20;;;1.70;;
26540;SDS011;14206;50.202;10.948;2023-02-26T16:35:11;1.80;;;1.50;;
26540;SDS011;14206;50.202;10.948;2023-02-26T16:37:45;1.40;;;1.23;;
26540;SDS011;14206;50.202;10.948;2023-02-26T16:53:53;3.83;;;2.28;;
26540;SDS011;14206;50.202;10.948;2023-02-26T16:56:27;3.92;;;2.70;;
26540;SDS011;14206;50.202;10.948;2023-02-26T16:59:19;8.67;;;3.57;;
26540;SDS011;14206;50.202;10.948;2023-02-26T17:04:45;10.30;;;5.70;;
26540;SDS011;14206;50.202;10.948;2023-02-26T17:07:19;7.45;;;4.50;;
26540;SDS011;14206;50.202;10.948;2023-02-26T17:09:55;4.85;;;3.35;;
26540;SDS011;14206;50.202;10.948;2023-02-26T17:12:43;6.80;;;4.38;;
26540;SDS011;14206;50.202;10.948;2023-02-26T17:15:20;3.85;;;2.70;;
26540;SDS011;14206;50.202;10.948;2023-02-26T17:17:52;4.38;;;2.85;;
26540;SDS011;14206;50.202;10.948;2023-02-26T17:20:23;6.50;;;2.72;;
26540;SDS011;14206;50.202;10.948;2023-02-26T17:22:51;3.28;;;2.30;;
26540;SDS011;14206;50.202;10.948;2023-02-26T17:25:18;2.40;;;1.90;;
26540;SDS011;14206;50.202;10.948;2023-02-26T17:27:47;2.75;;;1.90;;
26540;SDS011;14206;50.202;10.948;2023-02-26T17:30:15;3.35;;;1.67;;
26540;SDS011;14206;50.202;10.948;2023-02-26T17:32:45;2.80;;;1.73;;
26540;SDS011;14206;50.202;10.948;2023-02-26T17:35:13;1.83;;;1.35;;
26540;SDS011;14206;50.202;10.948;2023-02-26T17:37:42;2.28;;;1.10;;
26540;SDS011;14206;50.202;10.948;2023-02-26T17:40:19;2.83;;;1.10;;
26540;SDS011;14206;50.202;10.948;2023-02-26T17:42:52;1.58;;;0.90;;
26540;SDS011;14206;50.202;10.948;2023-02-26T17:45:19;1.67;;;1.20;;
26540;SDS011;14206;50.202;10.948;2023-02-26T17:47:47;2.30;;;1.45;;
26540;SDS011;14206;50.202;10.948;2023-02-26T17:52:49;5.68;;;4.22;;
26540;SDS011;14206;50.202;10.948;2023-02-26T17:55:16;4.70;;;3.13;;
26540;SDS011;14206;50.202;10.948;2023-02-26T17:57:42;4.00;;;3.00;;
26540;SDS011;14206;50.202;10.948;2023-02-26T18:00:10;2.97;;;2.08;;
26540;SDS011;14206;50.202;10.948;2023-02-26T18:02:41;2.33;;;1.83;;
26540;SDS011;14206;50.202;10.948;2023-02-26T18:05:08;2.33;;;1.95;;
26540;SDS011;14206;50.202;10.948;2023-02-26T18:07:35;2.10;;;1.48;;
26540;SDS011;14206;50.202;10.948;2023-02-26T18:10:04;1.60;;;1.48;;
26540;SDS011;14206;50.202;10.948;2023-02-26T18:12:31;2.03;;;1.60;;
26540;SDS011;14206;50.202;10.948;2023-02-26T18:14:58;1.48;;;1.20;;
26540;SDS011;14206;50.202;10.948;2023-02-26T18:17:26;2.92;;;1.60;;
26540;SDS011;14206;50.202;10.948;2023-02-26T18:19:56;2.58;;;1.40;;
26540;SDS011;14206;50.202;10.948;2023-02-26T18:22:23;1.58;;;1.30;;
26540;SDS011;14206;50.202;10.948;2023-02-26T18:24:53;2.80;;;1.63;;
26540;SDS011;14206;50.202;10.948;2023-02-26T18:27:21;2.15;;;1.38;;
26540;SDS011;14206;50.202;10.948;2023-02-26T18:29:49;1.88;;;1.35;;
26540;SDS011;14206;50.202;10.948;2023-02-26T18:32:18;3.03;;;1.65;;
26540;SDS011;14206;50.202;10.948;2023-02-26T18:34:47;1.30;;;1.10;;
26540;SDS011;14206;50.202;10.948;2023-02-26T18:37:20;1.00;;;0.82;;
26540;SDS011;14206;50.202;10.948;2023-02-26T18:39:50;2.07;;;1.10;;
26540;SDS011;14206;50.202;10.948;2023-02-26T18:44:49;1.05;;;0.80;;